Time;durP1;ratioP1;P1;durP2;ratioP2;P2;SDS_P1;SDS_P2;PMS_P1;PMS_P2;Temp;Humidity;BMP_temperature;BMP_pressure;BME280_temperature;BME280_humidity;BME280_pressure;Samples;Min_cycle;Max_cycle;Signal;HPM_P1;HPM_P2
2022/10/27 00:01:22;;;;;;;9.60;3.70;;;;;;;10.64;100.00;97107.22;5028194;28;20150;-76
2022/10/27 00:03:51;;;;;;;13.47;3.83;;;;;;;10.59;100.00;97105.81;5028465;28;20037;-75
2022/10/27 00:06:17;;;;;;;9.73;3.63;;;;;;;10.61;100.00;97110.94;5031505;28;20032;-76
2022/10/27 00:08:43;;;;;;;8.93;3.70;;;;;;;10.62;100.00;97102.06;5026140;28;20121;-75
2022/10/27 00:11:08;;;;;;;9.43;3.50;;;;;;;10.61;100.00;97106.50;5027843;28;20140;-75
2022/10/27 00:13:35;;;;;;;10.83;4.07;;;;;;;10.56;100.00;97108.72;5027358;28;20037;-76
2022/10/27 00:16:04;;;;;;;11.90;3.53;;;;;;;10.52;100.00;97112.59;5027111;28;20807;-76
2022/10/27 00:18:30;;;;;;;8.73;3.80;;;;;;;10.50;100.00;97109.28;5025454;28;20045;-75
2022/10/27 00:20:58;;;;;;;9.23;3.80;;;;;;;10.39;100.00;97106.75;5026660;28;20044;-75
2022/10/27 00:23:23;;;;;;;12.73;5.00;;;;;;;10.24;100.00;97105.47;5027185;28;20474;-75
2022/10/27 00:25:54;;;;;;;12.90;4.70;;;;;;;10.26;100.00;97106.19;5025640;28;20021;-75
2022/10/27 00:28:20;;;;;;;10.83;4.33;;;;;;;10.24;100.00;97105.47;5026805;28;20415;-76
2022/10/27 00:30:46;;;;;;;10.67;4.03;;;;;;;10.18;100.00;97113.88;5027093;28;20036;-75
2022/10/27 00:33:11;;;;;;;14.10;4.47;;;;;;;10.19;100.00;97112.91;5025261;28;20029;-75
2022/10/27 00:35:37;;;;;;;12.57;4.97;;;;;;;10.15;100.00;97113.19;5023490;28;20129;-76
2022/10/27 00:38:03;;;;;;;12.73;4.70;;;;;;;10.11;100.00;97110.97;5027980;28;20025;-75
2022/10/27 00:40:34;;;;;;;12.17;5.93;;;;;;;10.13;100.00;97116.94;5031540;28;20037;-76
2022/10/27 00:43:00;;;;;;;10.93;4.60;;;;;;;10.11;100.00;97111.78;5025817;28;20037;-75
2022/10/27 00:45:25;;;;;;;10.27;4.03;;;;;;;10.09;100.00;97119.00;5023032;28;20465;-75
2022/10/27 00:47:51;;;;;;;12.50;5.03;;;;;;;10.10;100.00;97117.19;5026469;28;20033;-75
2022/10/27 00:50:21;;;;;;;11.27;5.17;;;;;;;10.09;100.00;97111.13;5027001;28;20030;-75
2022/10/27 00:52:54;;;;;;;11.27;4.77;;;;;;;10.08;100.00;97113.88;5043211;28;20163;-75
2022/10/27 00:55:33;;;;;;;10.98;4.57;;;;;;;10.03;100.00;97116.91;5032401;28;20040;-75
2022/10/27 00:58:05;;;;;;;11.10;5.40;;;;;;;10.08;100.00;97119.13;5024287;28;20040;-75
2022/10/27 01:00:31;;;;;;;10.70;4.87;;;;;;;10.04;100.00;97123.81;5023175;28;20033;-75
2022/10/27 01:02:58;;;;;;;12.83;5.00;;;;;;;10.08;100.00;97124.38;5018918;28;20475;-75
2022/10/27 01:05:26;;;;;;;14.20;5.47;;;;;;;10.09;100.00;97121.63;5027362;28;20052;-75
2022/10/27 01:07:56;;;;;;;12.90;4.80;;;;;;;10.12;100.00;97121.34;5025210;28;20474;-75
2022/10/27 01:10:23;;;;;;;10.70;5.47;;;;;;;10.16;100.00;97121.94;5026337;28;20116;-75
2022/10/27 01:12:48;;;;;;;13.73;5.40;;;;;;;10.09;100.00;97126.03;5018642;28;20064;-75
2022/10/27 01:15:15;;;;;;;11.63;5.10;;;;;;;10.03;100.00;97127.41;5027391;28;20056;-75
2022/10/27 01:17:56;;;;;;;13.17;4.83;;;;;;;10.05;100.00;97129.91;5029340;28;20036;-75
2022/10/27 01:20:57;;;;;;;17.33;6.67;;;;;;;10.11;100.00;97130.19;5027954;28;20149;-75
2022/10/27 01:23:29;;;;;;;9.67;4.70;;;;;;;10.13;100.00;97128.28;5020950;28;20080;-75
2022/10/27 01:26:04;;;;;;;10.13;5.80;;;;;;;10.09;100.00;97133.91;5030580;28;20037;-75
2022/10/27 01:29:02;;;;;;;12.50;5.03;;;;;;;10.08;100.00;97135.72;5029103;28;20065;-75
2022/10/27 01:31:33;;;;;;;10.97;4.67;;;;;;;10.08;100.00;97127.00;5024391;28;20702;-75
2022/10/27 01:34:20;;;;;;;14.90;5.07;;;;;;;10.04;100.00;97126.44;5038597;28;20041;-75
2022/10/27 01:36:58;;;;;;;11.93;4.57;;;;;;;10.01;100.00;97134.59;5030463;28;20108;-75
2022/10/27 01:39:51;;;;;;;12.70;4.90;;;;;;;9.93;100.00;97129.19;5028931;28;20547;-75
2022/10/27 01:42:33;;;;;;;15.15;6.65;;;;;;;9.89;100.00;97118.13;5029210;28;20026;-75
2022/10/27 01:45:02;;;;;;;10.20;4.87;;;;;;;9.81;100.00;97132.88;5029374;28;20156;-75
2022/10/27 01:47:30;;;;;;;19.43;6.73;;;;;;;9.75;100.00;97128.13;5027898;28;20128;-75
2022/10/27 01:49:55;;;;;;;13.57;8.37;;;;;;;9.78;100.00;97123.44;5012599;28;20033;-75
2022/10/27 01:52:44;;;;;;;14.10;7.27;;;;;;;9.78;100.00;97128.69;5030140;28;20039;-75
2022/10/27 01:55:35;;;;;;;18.77;8.10;;;;;;;9.72;100.00;97123.97;5029941;28;20033;-75
2022/10/27 01:58:10;;;;;;;15.93;7.10;;;;;;;9.71;100.00;97122.31;5029678;28;20031;-75
2022/10/27 02:01:07;;;;;;;17.43;7.03;;;;;;;9.71;100.00;97119.69;5029305;28;20486;-76
2022/10/27 02:03:52;;;;;;;15.20;7.87;;;;;;;9.71;100.00;97116.22;5013799;28;20132;-74
2022/10/27 02:06:28;;;;;;;14.97;8.00;;;;;;;9.70;100.00;97118.03;5026300;28;20025;-75
2022/10/27 02:09:06;;;;;;;13.37;7.00;;;;;;;9.72;100.00;97120.50;5027071;28;20041;-75
2022/10/27 02:11:37;;;;;;;16.30;7.67;;;;;;;9.66;100.00;97122.72;5032831;28;20044;-75
2022/10/27 02:14:03;;;;;;;23.93;8.50;;;;;;;9.67;100.00;97123.53;5032213;28;20505;-75
2022/10/27 02:16:33;;;;;;;17.20;7.17;;;;;;;9.64;100.00;97121.19;5032142;28;20032;-74
2022/10/27 02:19:12;;;;;;;18.03;7.30;;;;;;;9.60;100.00;97118.00;5030297;28;20044;-74
2022/10/27 02:21:41;;;;;;;13.73;7.20;;;;;;;9.60;100.00;97111.91;5030710;28;20183;-74
2022/10/27 02:24:07;;;;;;;14.77;8.17;;;;;;;9.52;100.00;97117.78;5043498;28;20036;-75
2022/10/27 02:26:47;;;;;;;14.20;7.40;;;;;;;9.52;100.00;97109.09;5029098;28;20041;-75
2022/10/27 02:29:15;;;;;;;12.43;6.67;;;;;;;9.51;100.00;97113.50;5023225;28;20109;-75
2022/10/27 02:31:46;;;;;;;13.67;6.67;;;;;;;9.50;100.00;97114.50;5030726;28;20041;-75
2022/10/27 02:34:12;;;;;;;9.90;6.00;;;;;;;9.50;100.00;97111.88;5031829;28;20033;-75
2022/10/27 02:36:37;;;;;;;10.70;5.60;;;;;;;9.49;100.00;97120.72;5031844;28;20033;-74
2022/10/27 02:39:03;;;;;;;12.70;6.27;;;;;;;9.52;100.00;97114.34;5030237;28;20390;-75
2022/10/27 02:41:28;;;;;;;13.67;6.07;;;;;;;9.48;100.00;97116.41;5031377;28;20090;-75
2022/10/27 02:43:54;;;;;;;14.37;6.20;;;;;;;9.47;100.00;97113.91;5029935;28;20056;-75
2022/10/27 02:46:20;;;;;;;12.63;5.87;;;;;;;9.45;100.00;97109.59;5027091;28;20029;-75
2022/10/27 02:48:45;;;;;;;14.17;5.83;;;;;;;9.50;100.00;97113.66;5029673;28;20515;-74
2022/10/27 02:51:11;;;;;;;9.43;4.90;;;;;;;9.47;100.00;97114.75;5024060;28;20030;-75
2022/10/27 02:53:36;;;;;;;8.13;4.80;;;;;;;9.52;100.00;97119.59;5030592;28;20075;-75
2022/10/27 02:56:03;;;;;;;11.63;6.40;;;;;;;9.54;100.00;97115.88;5031285;28;20052;-75
2022/10/27 02:58:28;;;;;;;12.77;5.23;;;;;;;9.45;100.00;97117.50;5030736;28;20033;-75
2022/10/27 03:00:55;;;;;;;13.27;5.90;;;;;;;9.47;100.00;97122.63;5027350;28;20029;-75
2022/10/27 03:03:21;;;;;;;14.27;6.20;;;;;;;9.53;100.00;97116.84;5008903;28;20033;-75
2022/10/27 03:05:47;;;;;;;15.77;5.70;;;;;;;9.52;100.00;97107.28;5034600;28;20029;-74
2022/10/27 03:08:13;;;;;;;15.80;6.97;;;;;;;9.54;100.00;97120.31;5026986;28;20033;-75
2022/10/27 03:10:39;;;;;;;16.47;6.50;;;;;;;9.49;100.00;97114.59;5009945;28;20034;-75
2022/10/27 03:13:04;;;;;;;10.87;5.87;;;;;;;9.48;100.00;97116.41;5028787;28;20048;-74
2022/10/27 03:15:30;;;;;;;9.07;5.43;;;;;;;9.45;100.00;97119.28;5028488;28;20071;-75
2022/10/27 03:17:56;;;;;;;12.93;5.70;;;;;;;9.44;100.00;97115.00;5036395;28;20120;-75
2022/10/27 03:20:21;;;;;;;12.40;5.77;;;;;;;9.39;100.00;97107.53;5026529;28;20029;-75
2022/10/27 03:22:47;;;;;;;10.73;5.37;;;;;;;9.33;100.00;97112.47;5027521;28;20076;-75
2022/10/27 03:25:14;;;;;;;9.83;5.17;;;;;;;9.31;100.00;97111.75;5028682;28;20033;-74
2022/10/27 03:27:42;;;;;;;14.70;5.03;;;;;;;9.25;100.00;97123.59;5026394;28;20025;-75
2022/10/27 03:30:09;;;;;;;11.03;5.20;;;;;;;9.14;100.00;97126.28;5028188;28;20029;-75
2022/10/27 03:32:35;;;;;;;9.67;4.90;;;;;;;9.14;100.00;97124.50;5026601;28;20669;-74
2022/10/27 03:35:00;;;;;;;12.80;5.60;;;;;;;9.14;100.00;97128.91;5026830;28;20044;-75
2022/10/27 03:37:26;;;;;;;10.20;5.30;;;;;;;9.11;100.00;97130.00;5025928;28;20040;-75
2022/10/27 03:39:52;;;;;;;15.20;5.17;;;;;;;9.15;100.00;97126.19;5028111;28;20521;-75
2022/10/27 03:42:17;;;;;;;9.43;5.10;;;;;;;9.16;100.00;97135.72;5026841;28;20021;-75
2022/10/27 03:44:43;;;;;;;12.53;5.87;;;;;;;9.16;100.00;97137.50;5028971;28;20584;-74
2022/10/27 03:47:09;;;;;;;12.03;5.53;;;;;;;9.18;100.00;97135.56;5028352;28;20037;-74
2022/10/27 03:49:34;;;;;;;15.30;5.60;;;;;;;9.11;100.00;97135.25;5022986;28;20041;-74
2022/10/27 03:52:00;;;;;;;15.17;5.60;;;;;;;9.07;100.00;97128.59;5027936;28;20045;-75
2022/10/27 03:54:30;;;;;;;10.87;5.83;;;;;;;8.98;100.00;97132.81;5027929;28;20483;-75
2022/10/27 03:56:56;;;;;;;13.50;5.63;;;;;;;8.95;100.00;97132.22;5009742;28;20078;-75
2022/10/27 03:59:22;;;;;;;19.03;7.80;;;;;;;8.95;100.00;97140.97;5026954;28;20640;-75
2022/10/27 04:01:47;;;;;;;12.47;6.80;;;;;;;8.97;100.00;97136.41;5027144;28;20030;-74
2022/10/27 04:04:13;;;;;;;15.80;7.10;;;;;;;8.92;100.00;97142.97;5028102;28;20068;-75
2022/10/27 04:06:39;;;;;;;16.60;7.60;;;;;;;8.98;100.00;97139.84;5027490;28;20032;-75
2022/10/27 04:09:05;;;;;;;15.10;7.53;;;;;;;8.95;100.00;97137.47;5026687;28;20048;-74
2022/10/27 04:11:31;;;;;;;16.77;6.97;;;;;;;8.92;100.00;97146.47;5027855;28;20041;-75
2022/10/27 04:13:56;;;;;;;11.67;6.63;;;;;;;8.96;100.00;97144.41;5017926;28;20426;-74
2022/10/27 04:16:22;;;;;;;13.60;6.30;;;;;;;8.92;100.00;97143.84;5026417;28;20060;-75
2022/10/27 04:18:48;;;;;;;13.43;6.57;;;;;;;8.86;100.00;97146.13;5020387;28;20738;-75
2022/10/27 04:21:14;;;;;;;14.43;7.30;;;;;;;8.85;100.00;97140.06;5027652;28;20041;-75
2022/10/27 04:23:40;;;;;;;14.13;5.83;;;;;;;8.87;100.00;97138.13;5027388;28;20120;-75
2022/10/27 04:26:06;;;;;;;14.77;6.50;;;;;;;8.85;100.00;97137.44;5028160;28;20083;-75
2022/10/27 04:28:32;;;;;;;11.60;5.57;;;;;;;8.87;100.00;97134.66;5027370;28;20433;-75
2022/10/27 04:30:57;;;;;;;16.10;6.50;;;;;;;8.89;100.00;97140.63;5033422;28;20029;-75
2022/10/27 04:33:23;;;;;;;12.90;5.90;;;;;;;8.89;100.00;97138.00;5025678;28;20091;-75
2022/10/27 04:35:49;;;;;;;13.00;5.80;;;;;;;8.90;100.00;97137.03;5025721;28;20021;-75
2022/10/27 04:38:14;;;;;;;15.30;6.53;;;;;;;8.94;100.00;97139.28;5031984;28;20482;-75
2022/10/27 04:40:40;;;;;;;10.03;5.87;;;;;;;8.97;100.00;97138.19;5030519;28;20442;-75
2022/10/27 04:43:06;;;;;;;14.70;6.13;;;;;;;9.03;100.00;97139.50;5026377;28;20095;-75
2022/10/27 04:45:32;;;;;;;12.93;6.37;;;;;;;9.04;100.00;97146.38;5024566;28;20068;-75
2022/10/27 04:47:58;;;;;;;12.40;5.80;;;;;;;9.06;100.00;97137.44;5026717;28;20029;-75
2022/10/27 04:50:24;;;;;;;16.30;6.10;;;;;;;8.98;100.00;97139.84;5026666;28;20041;-75
2022/10/27 04:52:58;;;;;;;12.23;7.00;;;;;;;9.04;100.00;97139.34;5026485;28;20061;-74
2022/10/27 04:55:25;;;;;;;14.43;7.07;;;;;;;8.97;100.00;97133.78;5027143;28;20047;-75
2022/10/27 04:57:51;;;;;;;16.17;7.30;;;;;;;8.95;100.00;97140.09;5026768;28;20677;-75
2022/10/27 05:00:17;;;;;;;18.17;8.03;;;;;;;8.95;100.00;97135.72;5018140;28;20056;-75
2022/10/27 05:02:43;;;;;;;16.33;7.97;;;;;;;8.97;100.00;97132.94;5025809;28;20033;-75
2022/10/27 05:05:08;;;;;;;15.97;9.27;;;;;;;8.95;100.00;97129.59;5020400;28;20032;-75
2022/10/27 05:07:34;;;;;;;15.73;9.17;;;;;;;9.04;100.00;97134.09;5026235;28;20041;-75
2022/10/27 05:09:59;;;;;;;15.43;9.60;;;;;;;9.11;100.00;97127.38;5025653;28;20022;-75
2022/10/27 05:12:25;;;;;;;20.73;9.50;;;;;;;9.20;100.00;97124.00;5026893;28;20039;-75
2022/10/27 05:14:51;;;;;;;23.40;10.63;;;;;;;9.20;100.00;97128.41;5034821;28;20497;-75
2022/10/27 05:17:17;;;;;;;28.67;13.63;;;;;;;9.18;100.00;97133.78;5027360;28;20029;-76
2022/10/27 05:19:43;;;;;;;26.73;12.60;;;;;;;9.18;100.00;97136.41;5027669;28;20162;-75
2022/10/27 05:22:09;;;;;;;22.57;12.77;;;;;;;9.11;100.00;97137.03;5027292;28;20745;-75
2022/10/27 05:24:35;;;;;;;24.17;13.40;;;;;;;9.08;100.00;97139.91;5026602;28;20057;-76
2022/10/27 05:27:01;;;;;;;18.13;11.40;;;;;;;9.01;100.00;97142.22;5026513;28;20071;-76
2022/10/27 05:29:26;;;;;;;21.87;10.47;;;;;;;8.94;100.00;97136.66;5027424;28;20498;-76
2022/10/27 05:31:54;;;;;;;13.50;9.17;;;;;;;8.98;100.00;97138.06;5020233;28;20057;-76
2022/10/27 05:34:19;;;;;;;21.07;10.20;;;;;;;8.98;100.00;97139.84;5028899;28;20487;-76
2022/10/27 05:36:46;;;;;;;17.07;9.50;;;;;;;8.97;100.00;97132.94;5028305;28;20030;-76
2022/10/27 05:39:12;;;;;;;16.63;8.47;;;;;;;9.03;100.00;97132.44;5026619;28;20029;-77
2022/10/27 05:41:39;;;;;;;14.70;8.87;;;;;;;9.04;100.00;97128.84;5026861;28;20480;-77
2022/10/27 05:44:04;;;;;;;22.43;10.83;;;;;;;9.03;100.00;97129.81;5016110;28;20029;-77
2022/10/27 05:46:30;;;;;;;15.27;8.77;;;;;;;9.03;100.00;97132.44;5027384;28;20497;-77
2022/10/27 05:48:56;;;;;;;20.37;10.47;;;;;;;9.11;100.00;97137.88;5026059;28;20041;-77
2022/10/27 05:51:21;;;;;;;21.90;10.90;;;;;;;9.18;100.00;97133.78;5009454;28;20033;-76
2022/10/27 05:53:51;;;;;;;25.37;14.47;;;;;;;9.28;100.00;97128.59;5025740;28;20029;-77
2022/10/27 05:56:16;;;;;;;28.43;15.70;;;;;;;9.38;100.00;97136.53;5027040;28;20056;-77
2022/10/27 05:58:42;;;;;;;35.70;18.83;;;;;;;9.49;100.00;97128.59;5025515;28;20064;-76
2022/10/27 06:01:08;;;;;;;38.10;20.20;;;;;;;9.63;100.00;97132.66;5027370;28;20037;-77
2022/10/27 06:03:33;;;;;;;37.13;21.13;;;;;;;9.78;100.00;97123.44;5012258;28;20090;-77
2022/10/27 06:06:02;;;;;;;32.17;19.17;;;;;;;9.65;100.00;97122.84;5012476;28;20502;-77
2022/10/27 06:08:28;;;;;;;27.90;15.93;;;;;;;9.63;100.00;97130.84;5028165;28;20083;-77
2022/10/27 06:10:55;;;;;;;21.77;14.20;;;;;;;9.54;100.00;97128.19;5028922;28;20037;-77
2022/10/27 06:13:21;;;;;;;27.10;14.73;;;;;;;9.45;100.00;97128.00;5029379;28;20039;-77
2022/10/27 06:15:47;;;;;;;29.03;17.50;;;;;;;9.70;100.00;97130.34;5043247;28;20425;-77
2022/10/27 06:18:13;;;;;;;26.00;15.00;;;;;;;9.67;100.00;97128.81;5027204;28;20105;-78
2022/10/27 06:20:40;;;;;;;31.97;16.50;;;;;;;9.91;100.00;97139.81;5026920;28;21078;-77
2022/10/27 06:23:05;;;;;;;28.43;16.20;;;;;;;10.04;100.00;97144.84;5029058;28;20025;-78
2022/10/27 06:25:31;;;;;;;33.47;17.33;;;;;;;10.27;100.00;97139.41;5028949;28;20430;-77
2022/10/27 06:27:57;;;;;;;27.73;18.40;;;;;;;10.33;100.00;97144.13;5024343;28;20083;-77
2022/10/27 06:30:22;;;;;;;28.53;17.30;;;;;;;10.53;100.00;97151.09;5028735;28;20037;-77
2022/10/27 06:32:48;;;;;;;26.00;16.10;;;;;;;10.57;100.00;97152.47;5030495;28;20049;-76
2022/10/27 06:35:14;;;;;;;27.30;15.57;;;;;;;10.62;100.00;97147.59;5029862;28;20029;-77
2022/10/27 06:37:42;;;;;;;22.80;12.73;;;;;;;10.79;100.00;97155.78;5028117;28;20479;-78
2022/10/27 06:40:11;;;;;;;26.67;14.20;;;;;;;10.97;100.00;97162.03;5030686;28;20095;-78
2022/10/27 06:42:40;;;;;;;20.33;11.77;;;;;;;11.23;100.00;97158.81;5029021;28;20120;-79
2022/10/27 06:45:07;;;;;;;20.37;11.87;;;;;;;11.42;100.00;97163.25;5044662;28;20129;-77
2022/10/27 06:47:33;;;;;;;24.07;12.00;;;;;;;11.64;100.00;97167.38;5027361;28;20051;-77
2022/10/27 06:49:58;;;;;;;18.43;11.43;;;;;;;11.79;100.00;97156.19;5027838;28;20025;-77
2022/10/27 06:52:25;;;;;;;16.73;9.90;;;;;;;12.03;100.00;97154.88;5028265;28;20327;-77
2022/10/27 06:54:51;;;;;;;16.37;9.87;;;;;;;12.24;100.00;97155.50;5028470;28;20116;-78
2022/10/27 06:57:17;;;;;;;18.70;9.20;;;;;;;12.55;100.00;97147.25;5027722;28;20101;-77
2022/10/27 06:59:42;;;;;;;15.13;7.50;;;;;;;12.80;100.00;97144.84;5012296;28;20037;-77
2022/10/27 07:02:13;;;;;;;16.17;8.13;;;;;;;13.05;100.00;97145.91;5031669;28;20174;-77
2022/10/27 07:04:39;;;;;;;16.37;7.10;;;;;;;13.19;100.00;97146.19;5022611;28;20458;-79
2022/10/27 07:07:05;;;;;;;13.77;7.53;;;;;;;13.43;100.00;97139.47;5022075;28;20088;-77
2022/10/27 07:09:31;;;;;;;16.97;7.90;;;;;;;13.45;100.00;97134.88;5041195;28;20033;-78
2022/10/27 07:11:56;;;;;;;13.87;7.20;;;;;;;13.55;100.00;97132.13;5019847;28;20483;-77
2022/10/27 07:14:22;;;;;;;18.53;6.87;;;;;;;13.59;100.00;97129.00;5025840;28;20573;-77
2022/10/27 07:16:48;;;;;;;15.40;6.87;;;;;;;13.89;100.00;97134.78;5031131;28;20906;-77
2022/10/27 07:19:15;;;;;;;14.67;6.77;;;;;;;13.80;100.00;97133.06;5023301;28;20029;-77
2022/10/27 07:21:40;;;;;;;15.00;7.00;;;;;;;13.85;100.00;97133.44;5028972;28;20041;-77
2022/10/27 07:24:06;;;;;;;24.37;7.00;;;;;;;13.90;100.00;97128.50;5029184;28;20037;-76
2022/10/27 07:26:32;;;;;;;14.67;6.07;;;;;;;14.20;100.00;97121.03;5031176;28;20149;-77
2022/10/27 07:28:58;;;;;;;15.07;5.93;;;;;;;14.63;100.00;97125.31;5028011;28;20040;-76
2022/10/27 07:31:24;;;;;;;12.03;6.10;;;;;;;14.43;100.00;97129.19;5029167;28;20025;-77
2022/10/27 07:33:50;;;;;;;12.10;4.80;;;;;;;14.82;100.00;97122.38;5026259;28;20088;-76
2022/10/27 07:36:15;;;;;;;15.70;5.22;;;;;;;14.82;100.00;97126.81;5030879;28;20031;-77
2022/10/27 07:38:41;;;;;;;13.00;5.00;;;;;;;14.95;100.00;97124.50;5031236;28;20047;-77
2022/10/27 07:41:07;;;;;;;17.58;4.90;;;;;;;15.08;100.00;97129.31;5028940;28;20475;-78
2022/10/27 07:43:34;;;;;;;16.33;5.30;;;;;;;15.37;100.00;97133.28;5010771;28;20570;-78
2022/10/27 07:45:59;;;;;;;15.55;5.80;;;;;;;15.42;100.00;97141.56;5027735;28;20407;-78
2022/10/27 07:48:25;;;;;;;12.13;5.22;;;;;;;15.50;100.00;97138.91;5027913;28;20033;-79
2022/10/27 07:50:51;;;;;;;13.23;5.15;;;;;;;15.92;100.00;97137.84;5029958;28;20391;-77
2022/10/27 07:53:17;;;;;;;13.95;4.70;;;;;;;15.85;100.00;97129.72;5027886;28;20037;-78
2022/10/27 07:55:43;;;;;;;17.92;4.97;;;;;;;15.74;100.00;97133.59;5041552;28;20017;-78
2022/10/27 07:58:14;;;;;;;13.73;4.13;;;;;;;15.95;100.00;97132.19;5028046;28;20098;-79
2022/10/27 08:00:45;;;;;;;18.25;5.28;;;;;;;16.42;100.00;97129.50;5027716;28;20037;-79
2022/10/27 08:03:15;;;;;;;18.65;5.78;;;;;;;16.48;100.00;97128.00;5019461;28;20087;-78
2022/10/27 08:05:41;;;;;;;15.77;4.68;;;;;;;16.45;100.00;97131.00;5028356;28;20037;-77
2022/10/27 08:08:07;;;;;;;14.32;5.35;;;;;;;17.15;100.00;97132.72;5033890;28;20040;-78
2022/10/27 08:10:36;;;;;;;17.92;6.15;;;;;;;17.05;100.00;97127.66;5025689;28;20036;-78
2022/10/27 08:13:02;;;;;;;12.38;4.45;;;;;;;17.09;100.00;97131.59;5020899;28;20061;-78
2022/10/27 08:15:28;;;;;;;16.95;4.88;;;;;;;17.19;100.00;97131.34;5017931;28;20525;-78
2022/10/27 08:17:58;;;;;;;18.13;5.10;;;;;;;17.53;100.00;97127.41;5033367;28;20044;-79
2022/10/27 08:20:25;;;;;;;9.95;4.53;;;;;;;17.49;100.00;97126.94;5025605;28;20045;-78
2022/10/27 08:23:00;;;;;;;16.45;5.30;;;;;;;17.37;100.00;97128.38;5021741;28;20049;-78
2022/10/27 08:25:26;;;;;;;10.65;4.85;;;;;;;17.45;100.00;97123.00;5027503;28;20033;-78
2022/10/27 08:27:52;;;;;;;13.10;4.60;;;;;;;17.73;100.00;97117.06;5026999;28;20096;-77
2022/10/27 08:30:22;;;;;;;12.25;4.88;;;;;;;17.82;100.00;97126.66;5017722;28;20116;-79
2022/10/27 08:32:48;;;;;;;11.85;4.97;;;;;;;17.67;100.00;97127.44;5042635;28;20071;-78
2022/10/27 08:35:15;;;;;;;13.95;5.20;;;;;;;17.73;100.00;97119.72;5017968;28;20036;-78
2022/10/27 08:37:41;;;;;;;13.43;5.63;;;;;;;17.41;100.00;97125.19;5025514;28;20030;-78
2022/10/27 08:40:09;;;;;;;10.00;4.05;;;;;;;17.95;100.00;97118.03;5019073;28;20110;-77
2022/10/27 08:42:50;;;;;;;14.63;4.57;;;;;;;17.84;100.00;97113.97;5033677;28;20037;-78
2022/10/27 08:45:29;;;;;;;15.65;4.03;;;;;;;18.35;100.00;97106.88;5035416;28;20028;-79
2022/10/27 08:47:57;;;;;;;18.08;4.15;;;;;;;18.38;100.00;97122.47;5042344;28;20065;-78
2022/10/27 08:50:26;;;;;;;10.75;3.95;;;;;;;18.41;100.00;97113.28;5035564;28;20040;-76
2022/10/27 08:53:02;;;;;;;16.38;4.70;;;;;;;18.55;100.00;97111.59;5028467;28;20483;-78
2022/10/27 08:55:31;;;;;;;13.07;3.45;;;;;;;18.48;100.00;97108.03;5026579;28;20135;-79
2022/10/27 08:58:06;;;;;;;11.63;3.45;;;;;;;18.91;100.00;97106.25;5025482;28;20030;-78
2022/10/27 09:00:43;;;;;;;9.27;3.75;;;;;;;18.60;100.00;97115.34;5027799;28;20494;-78
2022/10/27 09:03:37;;;;;;;19.67;5.70;;;;;;;18.84;100.00;97108.03;5013638;28;20033;-77
2022/10/27 09:06:20;;;;;;;15.23;3.60;;;;;;;18.77;100.00;97117.81;5042869;28;20033;-78
2022/10/27 09:09:16;;;;;;;8.45;3.10;;;;;;;18.89;100.00;97105.63;5044897;28;20039;-79
2022/10/27 09:12:09;;;;;;;9.65;3.45;;;;;;;19.36;100.00;97106.88;5017022;28;20088;-79
2022/10/27 09:15:16;;;;;;;9.57;3.28;;;;;;;19.33;100.00;97109.91;5027788;28;20099;-77
2022/10/27 09:17:46;;;;;;;14.02;4.28;;;;;;;19.40;100.00;97105.47;5023909;28;20491;-79
2022/10/27 09:20:32;;;;;;;10.18;3.53;;;;;;;19.43;100.00;97110.41;5025990;28;20036;-80
2022/10/27 09:23:02;;;;;;;10.52;3.50;;;;;;;19.27;100.00;97111.50;5022734;28;20501;-79
2022/10/27 09:25:29;;;;;;;14.75;3.90;;;;;;;19.24;100.00;97109.22;5028598;28;20549;-79
2022/10/27 09:27:58;;;;;;;11.77;3.85;;;;;;;19.70;100.00;97102.63;5027920;28;20041;-81
2022/10/27 09:30:31;;;;;;;13.77;3.85;;;;;;;19.75;100.00;97100.19;5031130;28;20096;-79
2022/10/27 09:32:57;;;;;;;10.75;3.63;;;;;;;19.58;100.00;97109.47;5035953;28;20022;-79
2022/10/27 09:35:24;;;;;;;12.57;3.92;;;;;;;20.00;100.00;97104.03;5019553;28;20037;-80
2022/10/27 09:37:52;;;;;;;13.15;4.20;;;;;;;19.89;100.00;97099.25;5028123;28;20049;-79
2022/10/27 09:40:20;;;;;;;13.00;3.90;;;;;;;20.47;100.00;97094.38;5018316;28;20087;-83
2022/10/27 09:42:52;;;;;;;15.15;3.85;;;;;;;21.22;100.00;97094.31;5023378;28;20397;-80
2022/10/27 09:45:23;;;;;;;12.93;4.53;;;;;;;21.24;100.00;97091.47;5043751;28;20112;-79
2022/10/27 09:47:53;;;;;;;17.40;4.13;;;;;;;21.30;100.00;97093.31;5045468;28;20042;-79
2022/10/27 09:50:35;;;;;;;11.55;3.60;;;;;;;21.30;100.00;97096.81;5030491;28;20041;-79
2022/10/27 09:53:03;;;;;;;12.98;3.70;;;;;;;21.71;100.00;97098.44;5033036;28;20041;-79
2022/10/27 09:55:51;;;;;;;12.93;3.25;;;;;;;20.95;100.00;97096.97;5042272;28;20081;-79
2022/10/27 09:58:18;;;;;;;8.60;2.83;;;;;;;20.97;100.00;97096.78;5017180;28;20036;-79
2022/10/27 10:00:44;;;;;;;12.30;3.08;;;;;;;21.10;100.00;97091.44;5029500;28;20033;-79
2022/10/27 10:03:20;;;;;;;9.98;2.55;;;;;;;21.32;100.00;97093.91;5013353;28;20037;-79
2022/10/27 10:05:58;;;;;;;8.70;3.10;;;;;;;21.67;100.00;97091.88;5039231;28;20120;-80
2022/10/27 10:08:28;;;;;;;10.02;3.00;;;;;;;22.63;100.00;97084.97;5032144;28;20068;-78
2022/10/27 10:10:56;;;;;;;12.00;3.17;;;;;;;22.29;100.00;97090.47;5030147;28;20064;-79
2022/10/27 10:13:22;;;;;;;9.80;2.58;;;;;;;21.93;100.00;97087.47;5036920;28;20501;-78
2022/10/27 10:16:14;;;;;;;11.68;2.40;;;;;;;21.80;100.00;97085.69;5009150;28;20638;-79
2022/10/27 10:18:42;;;;;;;9.10;2.90;;;;;;;21.60;100.00;97089.22;5025918;28;20742;-78
2022/10/27 10:21:11;;;;;;;10.57;2.83;;;;;;;21.71;100.00;97092.28;5034911;28;20029;-79
2022/10/27 10:23:57;;;;;;;5.15;2.20;;;;;;;21.90;100.00;97094.09;5037856;28;20031;-80
2022/10/27 10:26:26;;;;;;;9.90;2.15;;;;;;;22.32;100.00;97094.59;5028859;28;20047;-79
2022/10/27 10:28:55;;;;;;;9.15;2.53;;;;;;;22.12;100.00;97095.47;5040906;28;20041;-79
2022/10/27 10:31:24;;;;;;;11.68;2.70;;;;;;;22.19;100.00;97094.66;5016868;28;20025;-79
2022/10/27 10:33:52;;;;;;;10.48;2.78;;;;;;;22.31;100.00;97092.97;5032332;28;20040;-79
2022/10/27 10:36:27;;;;;;;7.38;2.15;;;;;;;22.17;100.00;97081.47;5031365;28;20100;-79
2022/10/27 10:38:58;;;;;;;14.00;2.90;;;;;;;21.51;100.00;97092.31;5036685;28;20036;-79
2022/10/27 10:41:29;;;;;;;10.13;2.03;;;;;;;21.68;100.00;97080.13;5030553;28;20048;-78
2022/10/27 10:44:10;;;;;;;8.30;2.33;;;;;;;21.53;100.00;97087.56;5021072;28;20168;-79
2022/10/27 10:46:48;;;;;;;11.73;2.70;;;;;;;21.75;100.00;97082.78;5028038;28;20034;-79
2022/10/27 10:49:29;;;;;;;6.63;2.10;;;;;;;21.70;99.88;97088.78;5037503;28;20033;-79
2022/10/27 10:52:01;;;;;;;10.32;2.70;;;;;;;21.85;100.00;97084.00;5030408;28;20029;-79
2022/10/27 10:54:31;;;;;;;7.75;1.88;;;;;;;22.24;97.42;97081.47;5028867;28;20172;-79
2022/10/27 10:56:57;;;;;;;9.25;2.20;;;;;;;22.64;97.62;97082.09;5029015;28;20029;-79
2022/10/27 10:59:27;;;;;;;11.07;2.75;;;;;;;22.26;96.46;97079.38;5028407;28;20753;-79
2022/10/27 11:02:10;;;;;;;9.48;2.40;;;;;;;22.33;95.85;97074.81;5016363;28;20041;-79
2022/10/27 11:04:43;;;;;;;8.13;2.30;;;;;;;21.70;98.35;97075.41;5021745;28;20116;-79
2022/10/27 11:07:31;;;;;;;12.85;2.83;;;;;;;22.10;96.69;97067.25;5033092;28;20057;-79
2022/10/27 11:10:06;;;;;;;9.05;2.13;;;;;;;21.98;94.58;97071.63;5035207;28;20042;-78
2022/10/27 11:12:50;;;;;;;7.70;2.10;;;;;;;22.03;93.12;97061.06;5043775;28;20036;-79
2022/10/27 11:15:42;;;;;;;9.57;2.55;;;;;;;21.96;93.42;97065.63;5031871;28;20025;-79
2022/10/27 11:18:12;;;;;;;6.70;1.65;;;;;;;22.13;92.15;97062.31;5028530;28;20525;-79
2022/10/27 11:20:37;;;;;;;5.18;2.05;;;;;;;22.36;92.11;97059.13;5034453;28;20040;-79
2022/10/27 11:23:12;;;;;;;6.38;1.98;;;;;;;22.22;91.90;97056.72;5038704;28;20037;-79
2022/10/27 11:25:38;;;;;;;7.80;2.05;;;;;;;22.06;91.70;97061.47;5043686;28;20057;-79
2022/10/27 11:28:30;;;;;;;7.85;1.85;;;;;;;22.59;89.49;97055.09;5022120;28;20064;-79
2022/10/27 11:31:18;;;;;;;6.20;1.73;;;;;;;22.13;91.77;97048.91;5029860;28;20029;-80
2022/10/27 11:33:55;;;;;;;11.57;2.53;;;;;;;22.93;88.53;97047.69;5031890;28;20865;-79